Lyman, WY (82937)

6:52 PM MST on December 25, 2014 (GMT -0700)
Lyman, Wyoming | Change Station
CLOSE
Current Station
Personal Weather Station
Location: Lyman, WY
Elevation: 6716 ft
Nearby Weather Stations
Active Advisory: Winter Storm Warning Active Notice: Public Information Statement

Elev 6716 ft 41.33 °N, 110.29 °W | Updated 15 seconds ago

Snow
Snow
17.6 °F
Feels Like 11 °F
N
4.5
Wind Variable Wind from North
Gusts 5.4 mph

Today
High -- | Low -- °F
--% Chance of Precip.
Yesterday
High -- | Low -- °F
Precip. -- in
7:45 AM 4:57 PM
Waxing Crescent, 21% visible
Pressure 29.72 in
Visibility 1.5 miles
Clouds Overcast 800 ft
Windchill 11 °F
Dew Point 16 °F
Humidity 91%
Rainfall 0.06 in
Snow Depth Not available.
UV 0 out of 12
Pollen .10 out of 12
Air Quality Not available.
Flu Activity Not available.
METAR KFBR 260135Z AUTO 10008KT 1 1/2SM -SN OVC008 M07/M07 A2972 RMK AO2 T10711075

More Conditions Fewer Conditions

Pressure 29.72 in
Visibility 1.5 miles
Clouds Overcast 800 ft
Windchill 11 °F
Dew Point 16 °F
Humidity 91%
Rainfall 0.06 in
Snow Depth Not available.
UV 0 out of 12
Pollen .10 out of 12
Air Quality Not available.
Flu Activity Not available.
METAR KFBR 260135Z AUTO 10008KT 1 1/2SM -SN OVC008 M07/M07 A2972 RMK AO2 T10711075

More Conditions Fewer Conditions

10-Day Weather Forecast

Almanac

Astronomy

Dec. 25, 2014 Rise Set
Actual Time
Civil Twilight
Nautical Twilight
Astronomical Twilight
Moon
Length of Visible Light
Length of Day
Tomorrow will be .
, % of the Moon is Illuminated

Today's Extremes

State Highs State Lows

Community

WunderPhotos

Upload Photos

1,780,495 photos uploaded!

WunderBlogs® & News

Nearby

Air Quality

  Air Quality AQ Index Pollutant
Not available.

Snow Depth

Station Depth Elevation

Earthquake Activity

City Distance Mag. Time & Date
Minimum magnitude displayed is 2.5.

Coastal Water Temperatures

Place Temperature

Nearby Weather Stations